sensor_id;sensor_type;location;lat;lon;timestamp;pressure;altitude;pressure_sealevel;temperature;humidity
49455;BME280;49011;64.658;21.218;2022-07-22T00:00:08;101210.24;;;17.84;72.84
49455;BME280;49011;64.658;21.218;2022-07-22T00:02:36;101206.29;;;17.61;72.26
49455;BME280;49011;64.658;21.218;2022-07-22T00:05:05;101203.68;;;17.67;71.73
49455;BME280;49011;64.658;21.218;2022-07-22T00:07:33;101206.67;;;17.33;71.75
49455;BME280;49011;64.658;21.218;2022-07-22T00:10:00;101204.92;;;18.11;69.93
49455;BME280;49011;64.658;21.218;2022-07-22T00:12:27;101205.54;;;17.44;70.96
49455;BME280;49011;64.658;21.218;2022-07-22T00:14:55;101202.48;;;17.63;70.66
49455;BME280;49011;64.658;21.218;2022-07-22T00:17:22;101200.56;;;17.53;69.65
49455;BME280;49011;64.658;21.218;2022-07-22T00:19:50;101203.85;;;17.50;70.22
49455;BME280;49011;64.658;21.218;2022-07-22T00:22:17;101201.15;;;17.63;69.93
49455;BME280;49011;64.658;21.218;2022-07-22T00:24:44;101202.29;;;17.98;68.54
49455;BME280;49011;64.658;21.218;2022-07-22T00:27:11;101202.86;;;17.00;70.27
49455;BME280;49011;64.658;21.218;2022-07-22T00:29:39;101204.42;;;17.24;70.79
49455;BME280;49011;64.658;21.218;2022-07-22T00:32:06;101208.94;;;16.81;71.88
49455;BME280;49011;64.658;21.218;2022-07-22T00:34:34;101209.75;;;17.05;71.26
49455;BME280;49011;64.658;21.218;2022-07-22T00:37:01;101209.58;;;16.97;71.38
49455;BME280;49011;64.658;21.218;2022-07-22T00:39:28;101214.36;;;16.45;72.16
49455;BME280;49011;64.658;21.218;2022-07-22T00:41:55;101212.59;;;15.66;76.25
49455;BME280;49011;64.658;21.218;2022-07-22T00:44:23;101213.05;;;16.81;72.08
49455;BME280;49011;64.658;21.218;2022-07-22T00:46:50;101222.78;;;16.07;74.35
49455;BME280;49011;64.658;21.218;2022-07-22T00:49:17;101229.14;;;16.69;72.24
49455;BME280;49011;64.658;21.218;2022-07-22T00:51:45;101237.21;;;15.91;74.91
49455;BME280;49011;64.658;21.218;2022-07-22T00:54:14;101235.51;;;15.56;76.15
49455;BME280;49011;64.658;21.218;2022-07-22T00:56:42;101240.94;;;16.15;73.93
49455;BME280;49011;64.658;21.218;2022-07-22T00:59:11;101242.61;;;16.60;72.02
49455;BME280;49011;64.658;21.218;2022-07-22T01:01:39;101243.36;;;16.46;73.47
49455;BME280;49011;64.658;21.218;2022-07-22T01:04:06;101242.60;;;16.33;72.27
49455;BME280;49011;64.658;21.218;2022-07-22T01:06:33;101238.82;;;16.28;71.27
49455;BME280;49011;64.658;21.218;2022-07-22T01:09:00;101239.66;;;16.21;71.37
49455;BME280;49011;64.658;21.218;2022-07-22T01:11:27;101243.80;;;15.97;72.95
49455;BME280;49011;64.658;21.218;2022-07-22T01:13:55;101246.29;;;16.07;71.47
49455;BME280;49011;64.658;21.218;2022-07-22T01:16:24;101249.43;;;16.60;70.21
49455;BME280;49011;64.658;21.218;2022-07-22T01:18:52;101258.48;;;16.26;69.91
49455;BME280;49011;64.658;21.218;2022-07-22T01:21:20;101254.88;;;16.64;69.43
49455;BME280;49011;64.658;21.218;2022-07-22T01:23:47;101260.62;;;16.39;69.17
49455;BME280;49011;64.658;21.218;2022-07-22T01:26:15;101267.81;;;15.80;70.20
49455;BME280;49011;64.658;21.218;2022-07-22T01:28:42;101272.41;;;16.02;69.48
49455;BME280;49011;64.658;21.218;2022-07-22T01:31:09;101273.84;;;16.16;68.89
49455;BME280;49011;64.658;21.218;2022-07-22T01:33:37;101275.10;;;16.17;68.34
49455;BME280;49011;64.658;21.218;2022-07-22T01:36:05;101272.98;;;15.36;70.42
49455;BME280;49011;64.658;21.218;2022-07-22T01:38:34;101271.76;;;15.83;70.29
49455;BME280;49011;64.658;21.218;2022-07-22T01:41:01;101273.63;;;15.88;70.46
49455;BME280;49011;64.658;21.218;2022-07-22T01:43:29;101273.26;;;14.85;73.30
49455;BME280;49011;64.658;21.218;2022-07-22T01:45:56;101268.45;;;15.14;71.52
49455;BME280;49011;64.658;21.218;2022-07-22T01:48:23;101274.14;;;15.03;71.68
49455;BME280;49011;64.658;21.218;2022-07-22T01:50:51;101275.16;;;15.45;70.10
49455;BME280;49011;64.658;21.218;2022-07-22T01:53:19;101276.36;;;15.14;71.65
49455;BME280;49011;64.658;21.218;2022-07-22T01:55:46;101276.05;;;14.71;72.72
49455;BME280;49011;64.658;21.218;2022-07-22T01:58:14;101279.67;;;14.79;74.59
49455;BME280;49011;64.658;21.218;2022-07-22T02:00:42;101276.96;;;14.48;73.92
49455;BME280;49011;64.658;21.218;2022-07-22T02:03:10;101279.71;;;14.34;75.87
49455;BME280;49011;64.658;21.218;2022-07-22T02:05:38;101271.40;;;14.46;72.53
49455;BME280;49011;64.658;21.218;2022-07-22T02:08:07;101273.21;;;14.29;75.51
49455;BME280;49011;64.658;21.218;2022-07-22T02:10:36;101277.08;;;14.20;72.83
49455;BME280;49011;64.658;21.218;2022-07-22T02:13:04;101285.14;;;14.05;75.80
49455;BME280;49011;64.658;21.218;2022-07-22T02:15:32;101285.83;;;13.57;75.35
49455;BME280;49011;64.658;21.218;2022-07-22T02:17:59;101284.74;;;14.05;73.58
49455;BME280;49011;64.658;21.218;2022-07-22T02:20:27;101292.84;;;14.06;73.13
49455;BME280;49011;64.658;21.218;2022-07-22T02:22:55;101292.84;;;14.13;72.08
49455;BME280;49011;64.658;21.218;2022-07-22T02:25:22;101292.90;;;13.93;74.24
49455;BME280;49011;64.658;21.218;2022-07-22T02:27:49;101295.93;;;14.05;72.15
49455;BME280;49011;64.658;21.218;2022-07-22T02:30:16;101290.56;;;13.59;74.04
49455;BME280;49011;64.658;21.218;2022-07-22T02:32:43;101294.47;;;13.52;75.06
49455;BME280;49011;64.658;21.218;2022-07-22T02:35:10;101294.83;;;13.57;75.28
49455;BME280;49011;64.658;21.218;2022-07-22T02:37:38;101295.61;;;14.05;74.49
49455;BME280;49011;64.658;21.218;2022-07-22T02:40:07;101290.63;;;14.28;71.84
49455;BME280;49011;64.658;21.218;2022-07-22T02:42:35;101300.77;;;13.96;72.26
49455;BME280;49011;64.658;21.218;2022-07-22T02:45:03;101300.41;;;13.86;72.09
49455;BME280;49011;64.658;21.218;2022-07-22T02:47:30;101303.03;;;14.28;71.85
49455;BME280;49011;64.658;21.218;2022-07-22T02:49:58;101295.91;;;14.66;70.58
49455;BME280;49011;64.658;21.218;2022-07-22T02:52:25;101298.38;;;14.27;69.86
49455;BME280;49011;64.658;21.218;2022-07-22T02:54:52;101305.34;;;14.12;69.92
49455;BME280;49011;64.658;21.218;2022-07-22T02:57:20;101308.23;;;14.15;70.68
49455;BME280;49011;64.658;21.218;2022-07-22T02:59:47;101305.96;;;14.15;69.83
49455;BME280;49011;64.658;21.218;2022-07-22T03:02:14;101303.09;;;13.41;72.26
49455;BME280;49011;64.658;21.218;2022-07-22T03:04:41;101310.05;;;13.82;72.99
49455;BME280;49011;64.658;21.218;2022-07-22T03:07:08;101313.05;;;13.53;73.96
49455;BME280;49011;64.658;21.218;2022-07-22T03:09:36;101316.91;;;13.85;74.16
49455;BME280;49011;64.658;21.218;2022-07-22T03:12:04;101318.25;;;14.02;73.26
49455;BME280;49011;64.658;21.218;2022-07-22T03:14:31;101319.72;;;13.94;72.82
49455;BME280;49011;64.658;21.218;2022-07-22T03:16:59;101317.72;;;13.57;73.95
49455;BME280;49011;64.658;21.218;2022-07-22T03:19:26;101317.50;;;13.68;72.55
49455;BME280;49011;64.658;21.218;2022-07-22T03:21:53;101312.15;;;13.89;74.04
49455;BME280;49011;64.658;21.218;2022-07-22T03:24:20;101311.35;;;13.62;75.35
49455;BME280;49011;64.658;21.218;2022-07-22T03:26:48;101315.71;;;13.43;74.36
49455;BME280;49011;64.658;21.218;2022-07-22T03:29:15;101316.66;;;13.91;72.27
49455;BME280;49011;64.658;21.218;2022-07-22T03:31:42;101317.49;;;13.89;72.55
49455;BME280;49011;64.658;21.218;2022-07-22T03:34:09;101314.74;;;13.56;72.45
49455;BME280;49011;64.658;21.218;2022-07-22T03:36:36;101314.10;;;13.92;71.94
49455;BME280;49011;64.658;21.218;2022-07-22T03:39:04;101311.55;;;14.34;69.56
49455;BME280;49011;64.658;21.218;2022-07-22T03:41:31;101309.05;;;14.52;67.68
49455;BME280;49011;64.658;21.218;2022-07-22T03:43:58;101319.63;;;14.45;67.63
49455;BME280;49011;64.658;21.218;2022-07-22T03:46:25;101315.96;;;14.99;66.36
49455;BME280;49011;64.658;21.218;2022-07-22T03:48:53;101317.56;;;14.73;65.17
49455;BME280;49011;64.658;21.218;2022-07-22T03:51:20;101319.32;;;14.94;66.12
49455;BME280;49011;64.658;21.218;2022-07-22T03:53:47;101323.19;;;14.41;67.93
49455;BME280;49011;64.658;21.218;2022-07-22T03:56:14;101324.44;;;14.11;70.41
49455;BME280;49011;64.658;21.218;2022-07-22T03:58:41;101324.27;;;14.93;68.25
49455;BME280;49011;64.658;21.218;2022-07-22T04:01:08;101321.95;;;15.13;66.91
49455;BME280;49011;64.658;21.218;2022-07-22T04:03:36;101326.72;;;14.67;66.83
49455;BME280;49011;64.658;21.218;2022-07-22T04:06:04;101328.22;;;15.01;66.35
49455;BME280;49011;64.658;21.218;2022-07-22T04:08:32;101328.89;;;15.17;65.10
49455;BME280;49011;64.658;21.218;2022-07-22T04:10:59;101330.24;;;14.43;66.00
49455;BME280;49011;64.658;21.218;2022-07-22T04:13:27;101322.51;;;14.88;64.06
49455;BME280;49011;64.658;21.218;2022-07-22T04:15:54;101326.43;;;14.46;65.47
49455;BME280;49011;64.658;21.218;2022-07-22T04:18:22;101327.03;;;14.47;65.42
49455;BME280;49011;64.658;21.218;2022-07-22T04:20:49;101330.24;;;14.11;66.95
49455;BME280;49011;64.658;21.218;2022-07-22T04:23:16;101328.61;;;14.08;65.82
49455;BME280;49011;64.658;21.218;2022-07-22T04:25:44;101331.22;;;13.85;67.73
49455;BME280;49011;64.658;21.218;2022-07-22T04:28:11;101334.84;;;13.77;67.84
49455;BME280;49011;64.658;21.218;2022-07-22T04:30:38;101334.74;;;13.66;66.30
49455;BME280;49011;64.658;21.218;2022-07-22T04:33:05;101330.08;;;15.19;64.30
49455;BME280;49011;64.658;21.218;2022-07-22T04:35:32;101331.41;;;14.92;63.60
49455;BME280;49011;64.658;21.218;2022-07-22T04:38:00;101334.76;;;14.98;62.53
49455;BME280;49011;64.658;21.218;2022-07-22T04:40:27;101343.69;;;14.20;64.57
49455;BME280;49011;64.658;21.218;2022-07-22T04:42:54;101343.04;;;14.16;64.68
49455;BME280;49011;64.658;21.218;2022-07-22T04:45:22;101345.47;;;14.60;63.32
49455;BME280;49011;64.658;21.218;2022-07-22T04:47:49;101350.89;;;15.01;62.10
49455;BME280;49011;64.658;21.218;2022-07-22T04:50:17;101348.89;;;16.14;60.73
49455;BME280;49011;64.658;21.218;2022-07-22T04:52:44;101351.37;;;16.73;56.16
49455;BME280;49011;64.658;21.218;2022-07-22T04:55:12;101352.96;;;16.83;56.86
49455;BME280;49011;64.658;21.218;2022-07-22T04:57:39;101351.45;;;15.23;57.56
49455;BME280;49011;64.658;21.218;2022-07-22T05:00:07;101347.83;;;16.53;56.38
49455;BME280;49011;64.658;21.218;2022-07-22T05:02:35;101344.12;;;17.47;54.45
49455;BME280;49011;64.658;21.218;2022-07-22T05:05:03;101347.06;;;16.11;54.26
49455;BME280;49011;64.658;21.218;2022-07-22T05:07:30;101344.47;;;15.45;55.77
49455;BME280;49011;64.658;21.218;2022-07-22T05:09:58;101340.12;;;15.82;55.67
49455;BME280;49011;64.658;21.218;2022-07-22T05:12:25;101340.62;;;16.05;55.31
49455;BME280;49011;64.658;21.218;2022-07-22T05:14:53;101345.86;;;15.85;57.63
49455;BME280;49011;64.658;21.218;2022-07-22T05:17:20;101350.15;;;15.77;55.83
49455;BME280;49011;64.658;21.218;2022-07-22T05:19:48;101349.30;;;17.21;53.62
49455;BME280;49011;64.658;21.218;2022-07-22T05:22:16;101349.78;;;16.61;53.74
49455;BME280;49011;64.658;21.218;2022-07-22T05:24:43;101348.93;;;16.31;53.48
49455;BME280;49011;64.658;21.218;2022-07-22T05:27:12;101358.67;;;16.96;52.01
49455;BME280;49011;64.658;21.218;2022-07-22T05:29:39;101360.08;;;16.66;51.86
49455;BME280;49011;64.658;21.218;2022-07-22T05:32:06;101359.03;;;16.74;55.50
49455;BME280;49011;64.658;21.218;2022-07-22T05:34:34;101357.41;;;18.06;51.93
49455;BME280;49011;64.658;21.218;2022-07-22T05:37:01;101361.71;;;17.56;50.84
49455;BME280;49011;64.658;21.218;2022-07-22T05:39:31;101356.86;;;16.74;52.14
49455;BME280;49011;64.658;21.218;2022-07-22T05:41:59;101367.16;;;16.78;52.14
49455;BME280;49011;64.658;21.218;2022-07-22T05:44:26;101372.54;;;16.16;52.57
49455;BME280;49011;64.658;21.218;2022-07-22T05:46:53;101378.84;;;16.75;50.97
49455;BME280;49011;64.658;21.218;2022-07-22T05:49:20;101378.89;;;16.54;51.72
49455;BME280;49011;64.658;21.218;2022-07-22T05:51:47;101383.80;;;14.97;56.01
49455;BME280;49011;64.658;21.218;2022-07-22T05:54:14;101377.61;;;16.70;53.36
49455;BME280;49011;64.658;21.218;2022-07-22T05:56:42;101383.18;;;17.26;50.52
49455;BME280;49011;64.658;21.218;2022-07-22T05:59:09;101381.92;;;16.24;52.29
49455;BME280;49011;64.658;21.218;2022-07-22T06:01:36;101383.76;;;15.88;53.05
49455;BME280;49011;64.658;21.218;2022-07-22T06:04:04;101388.01;;;15.38;54.42
49455;BME280;49011;64.658;21.218;2022-07-22T06:06:31;101382.16;;;14.97;56.78
49455;BME280;49011;64.658;21.218;2022-07-22T06:08:59;101382.72;;;15.23;55.24
49455;BME280;49011;64.658;21.218;2022-07-22T06:11:27;101382.60;;;14.86;56.07
49455;BME280;49011;64.658;21.218;2022-07-22T06:13:55;101382.37;;;14.93;56.74
49455;BME280;49011;64.658;21.218;2022-07-22T06:16:23;101384.18;;;14.78;56.25
49455;BME280;49011;64.658;21.218;2022-07-22T06:18:50;101383.18;;;14.64;57.17
49455;BME280;49011;64.658;21.218;2022-07-22T06:21:18;101386.69;;;15.24;55.38
49455;BME280;49011;64.658;21.218;2022-07-22T06:23:45;101387.97;;;15.25;55.98
49455;BME280;49011;64.658;21.218;2022-07-22T06:26:12;101386.28;;;15.11;55.61
49455;BME280;49011;64.658;21.218;2022-07-22T06:28:39;101383.44;;;15.86;54.78
49455;BME280;49011;64.658;21.218;2022-07-22T06:31:07;101382.26;;;15.69;53.21
49455;BME280;49011;64.658;21.218;2022-07-22T06:33:34;101383.12;;;16.38;52.43
49455;BME280;49011;64.658;21.218;2022-07-22T06:36:01;101384.05;;;15.85;52.82
49455;BME280;49011;64.658;21.218;2022-07-22T06:38:29;101387.91;;;16.91;51.23
49455;BME280;49011;64.658;21.218;2022-07-22T06:40:56;101386.34;;;17.25;50.32
49455;BME280;49011;64.658;21.218;2022-07-22T06:43:23;101384.76;;;16.40;47.68
49455;BME280;49011;64.658;21.218;2022-07-22T06:45:51;101388.35;;;15.07;52.51
49455;BME280;49011;64.658;21.218;2022-07-22T06:48:18;101390.80;;;14.85;52.79
49455;BME280;49011;64.658;21.218;2022-07-22T06:50:45;101387.51;;;14.85;55.04
49455;BME280;49011;64.658;21.218;2022-07-22T06:53:12;101386.70;;;15.56;53.94
49455;BME280;49011;64.658;21.218;2022-07-22T06:55:39;101387.64;;;15.19;53.54
49455;BME280;49011;64.658;21.218;2022-07-22T06:58:07;101381.79;;;14.99;52.54
49455;BME280;49011;64.658;21.218;2022-07-22T07:00:35;101382.64;;;14.67;54.31
49455;BME280;49011;64.658;21.218;2022-07-22T07:03:03;101380.49;;;14.90;55.05
49455;BME280;49011;64.658;21.218;2022-07-22T07:05:30;101378.02;;;14.81;54.18
49455;BME280;49011;64.658;21.218;2022-07-22T07:07:57;101379.44;;;15.22;54.57
49455;BME280;49011;64.658;21.218;2022-07-22T07:10:24;101372.59;;;15.18;54.47
49455;BME280;49011;64.658;21.218;2022-07-22T07:12:55;101366.78;;;16.02;52.46
49455;BME280;49011;64.658;21.218;2022-07-22T07:15:23;101362.56;;;15.90;50.77
49455;BME280;49011;64.658;21.218;2022-07-22T07:17:51;101366.85;;;16.76;49.32
49455;BME280;49011;64.658;21.218;2022-07-22T07:20:19;101364.68;;;15.92;48.15
49455;BME280;49011;64.658;21.218;2022-07-22T07:22:47;101364.00;;;15.68;50.70
49455;BME280;49011;64.658;21.218;2022-07-22T07:25:14;101360.43;;;14.94;53.49
49455;BME280;49011;64.658;21.218;2022-07-22T07:27:42;101360.73;;;15.51;52.11
49455;BME280;49011;64.658;21.218;2022-07-22T07:30:10;101356.87;;;15.89;51.33
49455;BME280;49011;64.658;21.218;2022-07-22T07:32:52;101357.29;;;16.18;50.14
49455;BME280;49011;64.658;21.218;2022-07-22T07:35:28;101355.74;;;15.42;51.69
49455;BME280;49011;64.658;21.218;2022-07-22T07:37:56;101352.74;;;15.37;50.24
49455;BME280;49011;64.658;21.218;2022-07-22T07:40:23;101355.88;;;15.48;49.98
49455;BME280;49011;64.658;21.218;2022-07-22T07:42:50;101358.32;;;15.88;50.62
49455;BME280;49011;64.658;21.218;2022-07-22T07:45:18;101353.27;;;15.44;49.07
49455;BME280;49011;64.658;21.218;2022-07-22T07:47:45;101356.74;;;15.81;49.70
49455;BME280;49011;64.658;21.218;2022-07-22T07:50:13;101358.74;;;15.66;49.39
49455;BME280;49011;64.658;21.218;2022-07-22T07:52:42;101358.42;;;16.41;49.08
49455;BME280;49011;64.658;21.218;2022-07-22T07:55:09;101356.18;;;16.31;46.93
49455;BME280;49011;64.658;21.218;2022-07-22T07:57:38;101359.55;;;16.77;48.61
49455;BME280;49011;64.658;21.218;2022-07-22T08:00:09;101356.81;;;15.84;50.51
49455;BME280;49011;64.658;21.218;2022-07-22T08:02:38;101363.78;;;15.63;50.65
49455;BME280;49011;64.658;21.218;2022-07-22T08:05:06;101361.85;;;16.07;48.39
49455;BME280;49011;64.658;21.218;2022-07-22T08:07:34;101358.25;;;16.32;49.45
49455;BME280;49011;64.658;21.218;2022-07-22T08:10:04;101357.64;;;16.06;49.30
49455;BME280;49011;64.658;21.218;2022-07-22T08:12:32;101352.99;;;16.68;47.16
49455;BME280;49011;64.658;21.218;2022-07-22T08:15:00;101356.38;;;16.34;48.68
49455;BME280;49011;64.658;21.218;2022-07-22T08:17:27;101361.32;;;16.83;48.61
49455;BME280;49011;64.658;21.218;2022-07-22T08:19:55;101359.91;;;16.02;48.10
49455;BME280;49011;64.658;21.218;2022-07-22T08:22:22;101359.17;;;15.96;48.11
49455;BME280;49011;64.658;21.218;2022-07-22T08:24:49;101362.50;;;15.65;50.85
49455;BME280;49011;64.658;21.218;2022-07-22T08:27:16;101359.49;;;16.70;46.64
49455;BME280;49011;64.658;21.218;2022-07-22T08:29:44;101360.76;;;16.57;47.54
49455;BME280;49011;64.658;21.218;2022-07-22T08:32:11;101356.97;;;16.82;48.35
49455;BME280;49011;64.658;21.218;2022-07-22T08:34:38;101354.61;;;17.26;47.70
49455;BME280;49011;64.658;21.218;2022-07-22T08:37:06;101353.79;;;17.02;47.72
49455;BME280;49011;64.658;21.218;2022-07-22T08:39:33;101352.88;;;17.04;47.75
49455;BME280;49011;64.658;21.218;2022-07-22T08:42:00;101353.34;;;17.07;47.11
49455;BME280;49011;64.658;21.218;2022-07-22T08:44:30;101355.19;;;17.12;46.55
49455;BME280;49011;64.658;21.218;2022-07-22T08:46:58;101356.34;;;16.53;48.79
49455;BME280;49011;64.658;21.218;2022-07-22T08:49:26;101354.94;;;16.43;47.77
49455;BME280;49011;64.658;21.218;2022-07-22T08:51:54;101350.53;;;16.74;49.57
49455;BME280;49011;64.658;21.218;2022-07-22T08:54:22;101347.30;;;17.29;46.88
49455;BME280;49011;64.658;21.218;2022-07-22T08:56:51;101346.19;;;16.84;48.59
49455;BME280;49011;64.658;21.218;2022-07-22T08:59:18;101352.98;;;16.96;47.08
49455;BME280;49011;64.658;21.218;2022-07-22T09:02:04;101352.62;;;16.34;48.74
49455;BME280;49011;64.658;21.218;2022-07-22T09:04:31;101348.66;;;16.17;51.50
49455;BME280;49011;64.658;21.218;2022-07-22T09:06:59;101348.57;;;16.64;47.98
49455;BME280;49011;64.658;21.218;2022-07-22T09:09:31;101348.90;;;16.48;48.38
49455;BME280;49011;64.658;21.218;2022-07-22T09:12:04;101349.03;;;17.11;48.30
49455;BME280;49011;64.658;21.218;2022-07-22T09:14:44;101356.07;;;16.55;49.88
49455;BME280;49011;64.658;21.218;2022-07-22T09:17:31;101358.79;;;17.44;48.42
49455;BME280;49011;64.658;21.218;2022-07-22T09:20:00;101357.92;;;17.96;45.12
49455;BME280;49011;64.658;21.218;2022-07-22T09:22:34;101354.33;;;18.45;44.11
49455;BME280;49011;64.658;21.218;2022-07-22T09:25:23;101356.08;;;17.35;45.64
49455;BME280;49011;64.658;21.218;2022-07-22T09:27:51;101354.02;;;17.21;48.64
49455;BME280;49011;64.658;21.218;2022-07-22T09:30:21;101354.51;;;17.43;49.49
49455;BME280;49011;64.658;21.218;2022-07-22T09:32:50;101355.09;;;17.34;49.31
49455;BME280;49011;64.658;21.218;2022-07-22T09:35:18;101353.38;;;17.16;47.01
49455;BME280;49011;64.658;21.218;2022-07-22T09:37:51;101359.41;;;17.20;45.69
49455;BME280;49011;64.658;21.218;2022-07-22T09:40:20;101358.10;;;17.43;49.72
49455;BME280;49011;64.658;21.218;2022-07-22T09:42:50;101358.96;;;17.91;46.68
49455;BME280;49011;64.658;21.218;2022-07-22T09:45:19;101361.82;;;17.38;49.03
49455;BME280;49011;64.658;21.218;2022-07-22T09:47:47;101363.07;;;18.07;45.46
49455;BME280;49011;64.658;21.218;2022-07-22T09:50:20;101367.21;;;17.53;45.57
49455;BME280;49011;64.658;21.218;2022-07-22T09:52:50;101368.47;;;17.49;46.99
49455;BME280;49011;64.658;21.218;2022-07-22T09:55:19;101365.35;;;18.27;46.40
49455;BME280;49011;64.658;21.218;2022-07-22T09:57:48;101371.42;;;18.14;44.37
49455;BME280;49011;64.658;21.218;2022-07-22T10:00:17;101363.60;;;19.70;42.52
49455;BME280;49011;64.658;21.218;2022-07-22T10:02:46;101370.42;;;18.29;44.58
49455;BME280;49011;64.658;21.218;2022-07-22T10:05:17;101369.82;;;17.87;45.57
49455;BME280;49011;64.658;21.218;2022-07-22T10:07:45;101367.40;;;18.25;44.95
49455;BME280;49011;64.658;21.218;2022-07-22T10:10:15;101378.73;;;18.35;44.11
49455;BME280;49011;64.658;21.218;2022-07-22T10:12:44;101372.19;;;19.77;41.27
49455;BME280;49011;64.658;21.218;2022-07-22T10:15:12;101371.75;;;19.21;40.72
49455;BME280;49011;64.658;21.218;2022-07-22T10:17:46;101363.61;;;19.25;41.01
49455;BME280;49011;64.658;21.218;2022-07-22T10:20:17;101365.99;;;20.49;39.70
49455;BME280;49011;64.658;21.218;2022-07-22T10:22:50;101376.48;;;19.50;40.90
49455;BME280;49011;64.658;21.218;2022-07-22T10:25:19;101381.66;;;18.99;41.21
49455;BME280;49011;64.658;21.218;2022-07-22T10:27:48;101378.33;;;19.10;41.01
49455;BME280;49011;64.658;21.218;2022-07-22T10:30:19;101376.17;;;18.68;42.24
49455;BME280;49011;64.658;21.218;2022-07-22T10:33:03;101375.25;;;18.12;41.59
49455;BME280;49011;64.658;21.218;2022-07-22T10:35:32;101378.14;;;17.92;42.85
49455;BME280;49011;64.658;21.218;2022-07-22T10:38:02;101385.19;;;17.94;43.61
49455;BME280;49011;64.658;21.218;2022-07-22T10:40:45;101388.48;;;17.92;44.60
49455;BME280;49011;64.658;21.218;2022-07-22T10:43:14;101388.24;;;18.04;42.24
49455;BME280;49011;64.658;21.218;2022-07-22T10:45:44;101384.88;;;18.26;43.21
49455;BME280;49011;64.658;21.218;2022-07-22T10:48:15;101390.09;;;18.55;42.47
49455;BME280;49011;64.658;21.218;2022-07-22T10:50:48;101393.18;;;18.50;42.23
49455;BME280;49011;64.658;21.218;2022-07-22T10:53:19;101393.45;;;18.05;43.37
49455;BME280;49011;64.658;21.218;2022-07-22T10:56:06;101386.09;;;18.34;44.43
49455;BME280;49011;64.658;21.218;2022-07-22T10:58:46;101382.11;;;18.64;41.77
49455;BME280;49011;64.658;21.218;2022-07-22T11:01:15;101383.38;;;18.38;42.75
49455;BME280;49011;64.658;21.218;2022-07-22T11:03:44;101385.59;;;18.48;43.07
49455;BME280;49011;64.658;21.218;2022-07-22T11:06:16;101392.94;;;19.02;42.12
49455;BME280;49011;64.658;21.218;2022-07-22T11:08:46;101391.05;;;18.47;42.41
49455;BME280;49011;64.658;21.218;2022-07-22T11:11:14;101394.16;;;18.49;43.31
49455;BME280;49011;64.658;21.218;2022-07-22T11:13:42;101400.36;;;18.47;42.62
49455;BME280;49011;64.658;21.218;2022-07-22T11:16:21;101401.95;;;17.95;42.40
49455;BME280;49011;64.658;21.218;2022-07-22T11:18:52;101396.86;;;18.73;41.12
49455;BME280;49011;64.658;21.218;2022-07-22T11:21:22;101399.72;;;18.69;42.52
49455;BME280;49011;64.658;21.218;2022-07-22T11:23:52;101401.91;;;18.63;42.32
49455;BME280;49011;64.658;21.218;2022-07-22T11:26:25;101404.87;;;18.88;41.98
49455;BME280;49011;64.658;21.218;2022-07-22T11:28:53;101398.25;;;19.62;41.12
49455;BME280;49011;64.658;21.218;2022-07-22T11:31:23;101394.88;;;18.77;43.94
49455;BME280;49011;64.658;21.218;2022-07-22T11:33:51;101402.85;;;18.34;41.92
49455;BME280;49011;64.658;21.218;2022-07-22T11:36:19;101400.78;;;17.96;43.36
49455;BME280;49011;64.658;21.218;2022-07-22T11:38:48;101399.52;;;18.44;41.95
49455;BME280;49011;64.658;21.218;2022-07-22T11:41:17;101397.14;;;19.04;41.34
49455;BME280;49011;64.658;21.218;2022-07-22T11:43:45;101400.07;;;19.10;41.65
49455;BME280;49011;64.658;21.218;2022-07-22T11:46:14;101394.62;;;20.93;39.64
49455;BME280;49011;64.658;21.218;2022-07-22T11:48:43;101400.16;;;20.00;39.47
49455;BME280;49011;64.658;21.218;2022-07-22T11:51:12;101412.53;;;19.15;39.21
49455;BME280;49011;64.658;21.218;2022-07-22T11:53:41;101409.93;;;19.02;40.72
49455;BME280;49011;64.658;21.218;2022-07-22T11:56:11;101412.36;;;19.19;39.64
49455;BME280;49011;64.658;21.218;2022-07-22T11:58:42;101409.08;;;18.37;42.69
49455;BME280;49011;64.658;21.218;2022-07-22T12:01:12;101415.09;;;18.47;42.18
49455;BME280;49011;64.658;21.218;2022-07-22T12:03:45;101413.62;;;17.81;42.86
49455;BME280;49011;64.658;21.218;2022-07-22T12:06:14;101408.10;;;18.14;44.42
49455;BME280;49011;64.658;21.218;2022-07-22T12:08:45;101411.13;;;18.48;46.58
49455;BME280;49011;64.658;21.218;2022-07-22T12:11:15;101409.80;;;18.83;40.85
49455;BME280;49011;64.658;21.218;2022-07-22T12:13:44;101409.80;;;18.65;43.72
49455;BME280;49011;64.658;21.218;2022-07-22T12:16:30;101417.23;;;19.16;41.46
49455;BME280;49011;64.658;21.218;2022-07-22T12:18:58;101415.34;;;19.33;40.18
49455;BME280;49011;64.658;21.218;2022-07-22T12:21:27;101409.76;;;20.46;39.22
49455;BME280;49011;64.658;21.218;2022-07-22T12:23:58;101409.27;;;19.82;39.48
49455;BME280;49011;64.658;21.218;2022-07-22T12:26:44;101403.75;;;20.19;40.29
49455;BME280;49011;64.658;21.218;2022-07-22T12:29:15;101402.04;;;19.77;38.95
49455;BME280;49011;64.658;21.218;2022-07-22T12:31:44;101397.62;;;21.19;37.67
49455;BME280;49011;64.658;21.218;2022-07-22T12:34:12;101401.84;;;21.41;35.51
49455;BME280;49011;64.658;21.218;2022-07-22T12:36:44;101406.16;;;20.74;35.05
49455;BME280;49011;64.658;21.218;2022-07-22T12:39:14;101406.70;;;20.41;37.79
49455;BME280;49011;64.658;21.218;2022-07-22T12:41:52;101404.73;;;19.72;39.80
49455;BME280;49011;64.658;21.218;2022-07-22T12:44:22;101400.37;;;19.44;38.46
49455;BME280;49011;64.658;21.218;2022-07-22T12:46:52;101404.79;;;19.85;39.09